createdAt,value
2022-12-08T00:00:53.637Z,100347.76
2022-12-08T00:03:25.935Z,100349.77
2022-12-08T00:06:16.231Z,100341.84
2022-12-08T00:09:06.243Z,100340.16
2022-12-08T00:11:39.683Z,100331.66
2022-12-08T00:14:11.905Z,100330.74
2022-12-08T00:16:44.021Z,100331.58
2022-12-08T00:19:16.352Z,100323.00
2022-12-08T00:21:49.047Z,100329.90
2022-12-08T00:24:21.907Z,100328.19
2022-12-08T00:26:53.851Z,100329.09
2022-12-08T00:29:26.241Z,100318.20
2022-12-08T00:31:58.556Z,100315.44
2022-12-08T00:34:31.446Z,100306.06
2022-12-08T00:37:03.329Z,100311.17
2022-12-08T00:39:35.736Z,100314.56
2022-12-08T00:42:13.747Z,100312.01
2022-12-08T00:44:48.059Z,100305.95
2022-12-08T00:47:24.623Z,100317.96
2022-12-08T00:49:53.640Z,100315.48
2022-12-08T00:52:25.767Z,100304.38
2022-12-08T00:54:57.917Z,100302.70
2022-12-08T00:57:29.804Z,100298.39
2022-12-08T01:00:02.495Z,100297.58
2022-12-08T01:02:36.058Z,100296.67
2022-12-08T01:05:08.466Z,100302.66
2022-12-08T01:07:40.601Z,100304.52
2022-12-08T01:10:12.939Z,100296.91
2022-12-08T01:12:45.278Z,100305.25
2022-12-08T01:15:17.392Z,100303.50
2022-12-08T01:17:49.303Z,100306.02
2022-12-08T01:20:21.331Z,100307.00
2022-12-08T01:22:53.280Z,100303.43
2022-12-08T01:25:25.434Z,100309.38
2022-12-08T01:27:57.974Z,100300.91
2022-12-08T01:30:30.204Z,100300.91
2022-12-08T01:33:02.723Z,100300.10
2022-12-08T01:35:36.117Z,100287.99
2022-12-08T01:38:08.305Z,100292.27
2022-12-08T01:40:40.270Z,100301.68
2022-12-08T01:43:20.458Z,100290.62
2022-12-08T01:45:52.529Z,100285.47
2022-12-08T01:48:27.567Z,100289.74
2022-12-08T01:51:00.123Z,100298.28
2022-12-08T01:53:33.933Z,100298.35
2022-12-08T01:56:12.549Z,100296.60
2022-12-08T01:58:47.523Z,100298.53
2022-12-08T02:01:19.553Z,100306.79
2022-12-08T02:04:03.058Z,100297.48
2022-12-08T02:06:37.979Z,100287.22
2022-12-08T02:09:10.219Z,100294.16
2022-12-08T02:11:42.563Z,100298.35
2022-12-08T02:14:15.724Z,100302.66
2022-12-08T02:16:50.690Z,100294.95
2022-12-08T02:19:44.648Z,100290.62
2022-12-08T02:22:22.668Z,100292.37
2022-12-08T02:25:00.318Z,100289.00
2022-12-08T02:28:08.925Z,100289.00
2022-12-08T02:31:07.710Z,100280.46
2022-12-08T02:33:48.869Z,100287.29
2022-12-08T02:36:51.947Z,100272.80
2022-12-08T02:39:38.854Z,100271.89
2022-12-08T02:42:13.966Z,100255.81
2022-12-08T02:44:48.863Z,100249.82
2022-12-08T02:47:23.826Z,100245.62
2022-12-08T02:49:57.670Z,100240.50
2022-12-08T02:52:32.743Z,100256.66
2022-12-08T02:55:10.243Z,100259.14
2022-12-08T02:57:54.531Z,100256.48
2022-12-08T03:00:29.391Z,100259.00
2022-12-08T03:03:13.071Z,100244.61
2022-12-08T03:06:13.435Z,100238.62
2022-12-08T03:08:54.169Z,100252.31
2022-12-08T03:11:47.440Z,100243.84
2022-12-08T03:14:21.008Z,100237.78
2022-12-08T03:16:56.041Z,100235.23
2022-12-08T03:19:33.666Z,100240.34
2022-12-08T03:22:07.728Z,100238.66
2022-12-08T03:24:42.060Z,100233.58
2022-12-08T03:27:23.025Z,100232.73
2022-12-08T03:29:56.789Z,100233.64
2022-12-08T03:32:29.501Z,100218.28
2022-12-08T03:35:04.124Z,100229.63
2022-12-08T03:37:39.169Z,100218.31
2022-12-08T03:40:15.132Z,100215.75
2022-12-08T03:42:47.283Z,100228.53
2022-12-08T03:45:19.234Z,100232.06
2022-12-08T03:47:51.437Z,100220.86
2022-12-08T03:50:24.380Z,100217.37
2022-12-08T03:52:56.505Z,100220.77
2022-12-08T03:55:28.857Z,100216.47
2022-12-08T03:58:01.289Z,100220.09
2022-12-08T04:00:34.599Z,100211.45
2022-12-08T04:03:07.084Z,100208.77
2022-12-08T04:05:39.348Z,100219.92
2022-12-08T04:08:11.785Z,100212.26
2022-12-08T04:10:44.412Z,100209.67
2022-12-08T04:13:17.080Z,100202.78
2022-12-08T04:15:49.942Z,100199.45
2022-12-08T04:18:23.149Z,100195.14
2022-12-08T04:20:55.347Z,100194.20
2022-12-08T04:23:27.403Z,100195.08
2022-12-08T04:25:59.478Z,100201.91
2022-12-08T04:28:32.929Z,100194.20
2022-12-08T04:31:05.530Z,100201.00
2022-12-08T04:33:37.993Z,100191.59
2022-12-08T04:36:11.135Z,100204.50
2022-12-08T04:38:44.031Z,100198.48
2022-12-08T04:41:16.336Z,100206.21
2022-12-08T04:43:49.023Z,100202.78
2022-12-08T04:46:22.657Z,100205.34
2022-12-08T04:48:54.920Z,100201.88
2022-12-08T04:51:27.635Z,100202.81
2022-12-08T04:53:59.924Z,100199.38
2022-12-08T04:56:32.688Z,100203.66
2022-12-08T04:59:08.376Z,100204.53
2022-12-08T05:01:41.150Z,100209.70
2022-12-08T05:04:13.987Z,100206.31
2022-12-08T05:06:47.709Z,100203.94
2022-12-08T05:09:20.554Z,100200.45
2022-12-08T05:11:53.876Z,100192.00
2022-12-08T05:14:27.432Z,100192.75
2022-12-08T05:17:02.567Z,100186.80
2022-12-08T05:19:34.888Z,100192.78
2022-12-08T05:22:08.068Z,100193.71
2022-12-08T05:24:47.177Z,100191.22
2022-12-08T05:27:16.631Z,100187.73
2022-12-08T05:29:50.320Z,100181.71
2022-12-08T05:32:24.036Z,100186.02
2022-12-08T05:34:57.207Z,100184.39
2022-12-08T05:37:30.705Z,100188.60
2022-12-08T05:40:05.704Z,100186.91
2022-12-08T05:42:40.580Z,100179.97
2022-12-08T05:45:13.738Z,100180.84
2022-12-08T05:47:46.135Z,100182.52
2022-12-08T05:50:19.747Z,100184.33
2022-12-08T05:52:52.842Z,100199.60
2022-12-08T05:55:25.320Z,100185.98
2022-12-08T05:57:57.695Z,100189.47
2022-12-08T06:00:30.370Z,100195.45
2022-12-08T06:03:04.425Z,100195.55
2022-12-08T06:05:38.783Z,100187.34
2022-12-08T06:08:12.704Z,100191.81
2022-12-08T06:10:46.733Z,100191.19
2022-12-08T06:13:20.402Z,100199.16
2022-12-08T06:15:53.183Z,100186.52
2022-12-08T06:18:32.473Z,100198.52
2022-12-08T06:21:06.890Z,100187.08
2022-12-08T06:23:40.359Z,100180.95
2022-12-08T06:26:15.291Z,100180.06
2022-12-08T06:28:47.815Z,100177.60
2022-12-08T06:31:23.971Z,100188.58
2022-12-08T06:33:57.877Z,100178.31
2022-12-08T06:36:29.761Z,100176.66
2022-12-08T06:39:02.567Z,100185.52
2022-12-08T06:41:39.084Z,100188.16
2022-12-08T06:44:11.701Z,100174.44
2022-12-08T06:46:46.110Z,100172.67
2022-12-08T06:49:18.425Z,100181.14
2022-12-08T06:51:51.773Z,100174.36
2022-12-08T06:54:25.444Z,100183.02
2022-12-08T06:56:57.759Z,100178.04
2022-12-08T06:59:30.913Z,100177.30
2022-12-08T07:02:03.741Z,100177.44
2022-12-08T07:04:36.260Z,100170.65
2022-12-08T07:07:09.432Z,100185.08
2022-12-08T07:09:41.555Z,100190.94
2022-12-08T07:12:14.262Z,100184.80
2022-12-08T07:14:47.152Z,100177.84
2022-12-08T07:17:19.690Z,100184.59
2022-12-08T07:19:51.706Z,100175.33
2022-12-08T07:22:24.304Z,100179.83
2022-12-08T07:24:57.558Z,100178.38
2022-12-08T07:27:30.679Z,100181.03
2022-12-08T07:30:03.358Z,100177.53
2022-12-08T07:32:36.144Z,100176.59
2022-12-08T07:35:09.916Z,100174.68
2022-12-08T07:37:43.110Z,100178.89
2022-12-08T07:40:16.237Z,100178.86
2022-12-08T07:42:48.916Z,100186.44
2022-12-08T07:45:25.663Z,100189.00
2022-12-08T07:47:56.147Z,100176.08
2022-12-08T07:50:30.268Z,100177.77
2022-12-08T07:53:02.568Z,100176.13
2022-12-08T07:55:35.723Z,100158.20
2022-12-08T07:58:09.709Z,100149.69
2022-12-08T08:00:42.570Z,100166.86
2022-12-08T08:03:14.777Z,100161.06
2022-12-08T08:05:49.347Z,100155.31
2022-12-08T08:08:21.917Z,100154.67
2022-12-08T08:10:54.685Z,100142.19
2022-12-08T08:13:28.341Z,100132.16
2022-12-08T08:16:09.163Z,100132.25
2022-12-08T08:18:42.153Z,100138.35
2022-12-08T08:21:43.668Z,100134.16
2022-12-08T08:23:50.054Z,100134.98
2022-12-08T08:26:22.625Z,100137.53
2022-12-08T08:28:54.725Z,100140.89
2022-12-08T08:31:28.994Z,100129.63
2022-12-08T08:34:04.557Z,100123.55
2022-12-08T08:36:37.787Z,100124.29
2022-12-08T08:39:10.389Z,100129.34
2022-12-08T08:41:43.770Z,100142.98
2022-12-08T08:44:16.923Z,100137.30
2022-12-08T08:46:49.927Z,100136.77
2022-12-08T08:49:22.663Z,100138.63
2022-12-08T08:51:54.984Z,100138.68
2022-12-08T08:54:28.896Z,100130.16
2022-12-08T08:57:03.600Z,100119.86
2022-12-08T08:59:35.569Z,100118.15
2022-12-08T09:02:08.609Z,100119.03
2022-12-08T09:04:41.652Z,100137.84
2022-12-08T09:07:14.325Z,100130.94
2022-12-08T09:09:46.985Z,100138.52
2022-12-08T09:12:20.130Z,100129.86
2022-12-08T09:14:54.953Z,100130.64
2022-12-08T09:17:27.424Z,100137.42
2022-12-08T09:20:02.032Z,100127.18
2022-12-08T09:22:34.648Z,100131.42
2022-12-08T09:25:08.044Z,100138.25
2022-12-08T09:27:41.077Z,100122.75
2022-12-08T09:30:13.921Z,100127.82
2022-12-08T09:32:46.682Z,100128.59
2022-12-08T09:35:19.671Z,100121.69
2022-12-08T09:37:52.486Z,100117.38
2022-12-08T09:40:27.304Z,100109.83
2022-12-08T09:43:26.581Z,100111.78
2022-12-08T09:45:59.929Z,100117.02
2022-12-08T09:48:35.309Z,100116.38
2022-12-08T09:51:10.227Z,100115.63
2022-12-08T09:53:48.375Z,100104.60
2022-12-08T09:56:36.395Z,100109.83
2022-12-08T09:59:11.728Z,100102.10
2022-12-08T10:01:44.443Z,100102.86
2022-12-08T10:04:19.369Z,100097.59
2022-12-08T10:07:09.191Z,100104.27
2022-12-08T10:09:56.504Z,100100.73
2022-12-08T10:12:49.632Z,100103.28
2022-12-08T10:15:47.744Z,100113.45
2022-12-08T10:18:26.175Z,100103.91
2022-12-08T10:21:01.330Z,100102.95
2022-12-08T10:23:39.757Z,100112.30
2022-12-08T10:26:17.970Z,100104.52
2022-12-08T10:28:51.571Z,100111.34
2022-12-08T10:31:26.787Z,100117.28
2022-12-08T10:34:04.531Z,100113.02
2022-12-08T10:36:51.874Z,100111.33
2022-12-08T10:39:37.549Z,100111.34
2022-12-08T10:42:12.906Z,100104.50
2022-12-08T10:45:05.971Z,100095.95
2022-12-08T10:47:45.508Z,100107.04
2022-12-08T10:50:33.272Z,100100.28
2022-12-08T10:53:14.551Z,100107.10
2022-12-08T10:55:49.739Z,100111.45
2022-12-08T10:58:42.228Z,100107.19
2022-12-08T11:01:20.053Z,100105.52
2022-12-08T11:03:55.031Z,100103.85
2022-12-08T11:06:35.817Z,100105.58
2022-12-08T11:09:22.432Z,100098.74
2022-12-08T11:12:16.800Z,100094.50
2022-12-08T11:15:02.219Z,100085.98
2022-12-08T11:17:44.025Z,100097.97
2022-12-08T11:20:21.709Z,100092.03
2022-12-08T11:22:56.717Z,100093.73
2022-12-08T11:25:30.174Z,100091.19
2022-12-08T11:28:03.875Z,100088.68
2022-12-08T11:30:43.006Z,100095.48
2022-12-08T11:33:26.475Z,100083.52
2022-12-08T11:36:10.495Z,100074.12
2022-12-08T11:38:46.949Z,100083.50
2022-12-08T11:41:22.382Z,100086.05
2022-12-08T11:44:06.969Z,100081.77
2022-12-08T11:46:54.027Z,100090.35
2022-12-08T11:49:29.298Z,100084.31
2022-12-08T11:52:12.987Z,100089.47
2022-12-08T11:54:48.812Z,100097.25
2022-12-08T11:57:24.376Z,100098.03
2022-12-08T11:59:59.688Z,100100.53
2022-12-08T12:02:35.328Z,100090.24
2022-12-08T12:05:47.646Z,100097.95
2022-12-08T12:08:30.100Z,100102.22
2022-12-08T12:11:46.848Z,100106.55
2022-12-08T12:14:44.960Z,100108.27
2022-12-08T12:17:51.788Z,100109.08
2022-12-08T12:20:33.666Z,100107.39
2022-12-08T12:23:12.855Z,100102.22
2022-12-08T12:26:00.731Z,100101.37
2022-12-08T12:28:44.283Z,100114.15
2022-12-08T12:31:20.029Z,100112.42
2022-12-08T12:33:54.672Z,100108.13
2022-12-08T12:36:27.414Z,100097.95
2022-12-08T12:39:03.764Z,100109.00
2022-12-08T12:41:51.109Z,100106.45
2022-12-08T12:44:32.944Z,100109.84
2022-12-08T12:47:08.977Z,100111.56
2022-12-08T12:49:46.003Z,100110.77
2022-12-08T12:52:22.669Z,100114.13
2022-12-08T12:55:00.523Z,100121.00
2022-12-08T12:57:54.110Z,100132.92
2022-12-08T13:00:28.589Z,100121.83
2022-12-08T13:03:01.311Z,100124.39
2022-12-08T13:05:36.938Z,100135.52
2022-12-08T13:08:12.547Z,100147.45
2022-12-08T13:10:50.563Z,100136.38
2022-12-08T13:13:24.647Z,100129.52
2022-12-08T13:16:12.728Z,100135.49
2022-12-08T13:18:53.778Z,100133.76
2022-12-08T13:21:28.902Z,100137.20
2022-12-08T13:24:18.168Z,100139.80
2022-12-08T13:27:08.789Z,100128.69
2022-12-08T13:29:41.620Z,100122.71
2022-12-08T13:32:16.760Z,100133.83
2022-12-08T13:34:54.999Z,100129.59
2022-12-08T13:37:29.260Z,100127.88
2022-12-08T13:40:04.999Z,100139.88
2022-12-08T13:42:52.440Z,100135.59
2022-12-08T13:46:12.141Z,100139.06
2022-12-08T13:49:03.303Z,100127.11
2022-12-08T13:57:08.486Z,100122.88
2022-12-08T13:59:31.087Z,100128.87
2022-12-08T14:02:17.756Z,100122.89
2022-12-08T14:07:24.696Z,100133.28
2022-12-08T14:09:57.181Z,100127.18
2022-12-08T14:12:32.283Z,100127.18
2022-12-08T14:15:07.384Z,100126.34
2022-12-08T14:17:41.075Z,100134.91
2022-12-08T14:20:22.278Z,100134.05
2022-12-08T14:22:56.290Z,100134.05
2022-12-08T14:25:32.037Z,100147.73
2022-12-08T14:28:06.484Z,100151.23
2022-12-08T14:30:40.591Z,100154.66
2022-12-08T14:33:18.758Z,100152.92
2022-12-08T14:35:55.025Z,100150.43
2022-12-08T14:38:28.535Z,100147.91
2022-12-08T14:41:10.310Z,100152.20
2022-12-08T14:43:43.246Z,100162.46
2022-12-08T14:46:25.515Z,100163.28
2022-12-08T14:48:59.829Z,100157.30
2022-12-08T14:51:34.287Z,100163.28
2022-12-08T14:54:15.545Z,100167.61
2022-12-08T14:56:53.172Z,100169.27
2022-12-08T14:59:33.722Z,100171.02
2022-12-08T15:02:22.116Z,100176.13
2022-12-08T15:05:06.528Z,100177.85
2022-12-08T15:07:45.639Z,100183.88
2022-12-08T15:10:21.882Z,100186.42
2022-12-08T15:13:07.583Z,100188.98
2022-12-08T15:15:58.031Z,100186.48
2022-12-08T15:18:42.723Z,100182.14
2022-12-08T15:21:15.189Z,100182.98
2022-12-08T15:23:52.236Z,100194.14
2022-12-08T15:26:27.648Z,100201.02
2022-12-08T15:29:02.068Z,100205.27
2022-12-08T15:31:35.014Z,100207.02
2022-12-08T15:34:08.514Z,100212.14
2022-12-08T15:36:42.761Z,100207.01
2022-12-08T15:39:35.092Z,100215.62
2022-12-08T15:42:10.438Z,100226.75
2022-12-08T15:44:43.715Z,100210.50
2022-12-08T15:47:24.615Z,100216.55
2022-12-08T15:49:57.102Z,100210.57
2022-12-08T15:52:29.384Z,100220.00
2022-12-08T15:55:02.885Z,100213.13
2022-12-08T15:58:30.919Z,100207.98
2022-12-08T16:00:30.611Z,100203.72
2022-12-08T16:03:18.392Z,100209.73
2022-12-08T16:05:44.208Z,100214.02
2022-12-08T16:08:04.575Z,100211.48
2022-12-08T16:11:00.710Z,100214.06
2022-12-08T16:13:56.118Z,100215.78
2022-12-08T16:16:01.340Z,100209.91
2022-12-08T16:18:38.494Z,100213.25
2022-12-08T16:21:31.634Z,100210.67
2022-12-08T16:23:47.753Z,100209.86
2022-12-08T16:28:57.571Z,100213.28
2022-12-08T16:31:30.684Z,100209.92
2022-12-08T16:34:02.972Z,100215.91
2022-12-08T16:36:36.145Z,100215.91
2022-12-08T16:39:09.346Z,100214.23
2022-12-08T16:41:59.231Z,100208.23
2022-12-08T16:44:31.324Z,100216.81
2022-12-08T16:47:06.401Z,100212.52
2022-12-08T16:49:39.880Z,100219.40
2022-12-08T16:52:12.640Z,100207.41
2022-12-08T16:54:45.917Z,100213.42
2022-12-08T16:57:18.246Z,100214.29
2022-12-08T16:59:50.458Z,100216.00
2022-12-08T17:02:23.266Z,100215.16
2022-12-08T17:04:55.514Z,100216.92
2022-12-08T17:07:28.076Z,100217.77
2022-12-08T17:10:00.683Z,100218.62
2022-12-08T17:12:35.444Z,100217.77
2022-12-08T17:15:08.069Z,100216.08
2022-12-08T17:17:40.179Z,100216.14
2022-12-08T17:20:15.121Z,100216.08
2022-12-08T17:22:47.737Z,100215.22
2022-12-08T17:25:19.647Z,100214.34
2022-12-08T17:27:51.910Z,100203.25
2022-12-08T17:30:24.366Z,100200.67
2022-12-08T17:32:58.800Z,100200.70
2022-12-08T17:35:31.969Z,100211.00
2022-12-08T17:38:04.158Z,100218.72
2022-12-08T17:40:36.168Z,100206.71
2022-12-08T17:43:08.841Z,100211.00
2022-12-08T17:45:49.368Z,100207.61
2022-12-08T17:48:21.441Z,100208.44
2022-12-08T17:50:54.482Z,100204.19
2022-12-08T17:53:26.659Z,100207.61
2022-12-08T17:56:00.206Z,100207.63
2022-12-08T17:58:32.987Z,100214.45
2022-12-08T18:01:10.780Z,100216.17
2022-12-08T18:03:43.084Z,100222.20
2022-12-08T18:06:15.236Z,100228.19
2022-12-08T18:08:47.401Z,100229.91
2022-12-08T18:11:21.120Z,100217.05
2022-12-08T18:13:52.905Z,100217.05
2022-12-08T18:16:26.222Z,100228.30
2022-12-08T18:18:58.570Z,100210.23
2022-12-08T18:21:30.920Z,100223.08
2022-12-08T18:24:03.533Z,100228.22
2022-12-08T18:26:36.106Z,100234.21
2022-12-08T18:29:08.394Z,100234.22
2022-12-08T18:31:40.857Z,100231.64
2022-12-08T18:34:12.864Z,100232.51
2022-12-08T18:36:44.940Z,100235.09
2022-12-08T18:39:29.047Z,100235.98
2022-12-08T18:42:04.964Z,100219.72
2022-12-08T18:44:38.015Z,100237.73
2022-12-08T18:47:10.303Z,100242.86
2022-12-08T18:49:42.811Z,100254.83
2022-12-08T18:52:17.824Z,100244.56
2022-12-08T18:55:05.815Z,100247.14
2022-12-08T18:57:22.751Z,100244.55
2022-12-08T18:59:55.303Z,100241.13
2022-12-08T19:02:29.470Z,100240.28
2022-12-08T19:05:01.805Z,100243.70
2022-12-08T19:07:34.981Z,100234.27
2022-12-08T19:10:08.161Z,100236.00
2022-12-08T19:12:40.745Z,100238.59
2022-12-08T19:15:13.598Z,100234.30
2022-12-08T19:17:45.584Z,100247.16
2022-12-08T19:20:17.781Z,100242.88
2022-12-08T19:22:50.136Z,100236.91
2022-12-08T19:25:22.736Z,100238.64
2022-12-08T19:27:55.249Z,100242.06
2022-12-08T19:30:27.247Z,100242.94
2022-12-08T19:32:59.869Z,100237.81
2022-12-08T19:35:31.828Z,100242.09
2022-12-08T19:38:04.235Z,100248.10
2022-12-08T19:40:54.098Z,100251.52
2022-12-08T19:43:33.614Z,100254.91
2022-12-08T19:46:06.022Z,100257.48
2022-12-08T19:48:37.966Z,100252.35
2022-12-08T19:51:10.726Z,100252.33
2022-12-08T19:53:47.301Z,100260.04
2022-12-08T19:56:16.856Z,100265.18
2022-12-08T19:58:48.871Z,100256.56
2022-12-08T20:01:21.055Z,100259.14
2022-12-08T20:03:53.147Z,100255.73
2022-12-08T20:06:26.368Z,100260.87
2022-12-08T20:08:58.639Z,100252.27
2022-12-08T20:11:30.916Z,100253.14
2022-12-08T20:14:03.079Z,100260.85
2022-12-08T20:16:35.296Z,100259.16
2022-12-08T20:19:07.353Z,100265.15
2022-12-08T20:21:41.588Z,100277.13
2022-12-08T20:24:14.006Z,100266.01
2022-12-08T20:26:46.490Z,100272.00
2022-12-08T20:29:18.879Z,100284.03
2022-12-08T20:31:51.192Z,100289.15
2022-12-08T20:34:23.284Z,100285.75
2022-12-08T20:36:56.457Z,100283.18
2022-12-08T20:39:28.962Z,100286.62
2022-12-08T20:42:01.062Z,100284.91
2022-12-08T20:44:33.472Z,100276.36
2022-12-08T20:47:05.395Z,100269.50
2022-12-08T20:49:37.563Z,100275.53
2022-12-08T20:52:10.089Z,100276.39
2022-12-08T20:54:42.224Z,100273.81
2022-12-08T20:57:14.225Z,100276.39
2022-12-08T20:59:46.638Z,100272.13
2022-12-08T21:02:18.964Z,100281.58
2022-12-08T21:04:51.619Z,100276.42
2022-12-08T21:07:23.857Z,100273.85
2022-12-08T21:09:56.035Z,100272.98
2022-12-08T21:12:28.134Z,100281.55
2022-12-08T21:15:00.367Z,100274.69
2022-12-08T21:17:33.026Z,100273.84
2022-12-08T21:20:06.656Z,100278.15
2022-12-08T21:22:40.588Z,100273.85
2022-12-08T21:25:12.924Z,100270.44
2022-12-08T21:27:45.132Z,100280.72
2022-12-08T21:30:17.210Z,100269.59
2022-12-08T21:32:49.637Z,100277.31
2022-12-08T21:35:22.510Z,100272.17
2022-12-08T21:37:54.949Z,100267.89
2022-12-08T21:40:27.728Z,100274.75
2022-12-08T21:42:59.943Z,100278.16
2022-12-08T21:45:35.811Z,100282.47
2022-12-08T21:48:11.678Z,100287.63
2022-12-08T21:50:42.968Z,100285.89
2022-12-08T21:53:15.044Z,100286.78
2022-12-08T21:55:47.416Z,100294.50
2022-12-08T21:58:19.838Z,100292.77
2022-12-08T22:00:52.420Z,100291.91
2022-12-08T22:03:25.233Z,100287.63
2022-12-08T22:05:57.618Z,100289.36
2022-12-08T22:08:30.207Z,100292.76
2022-12-08T22:11:02.816Z,100292.76
2022-12-08T22:13:37.020Z,100301.33
2022-12-08T22:16:12.071Z,100299.62
2022-12-08T22:18:44.292Z,100296.19
2022-12-08T22:21:18.802Z,100299.63
2022-12-08T22:23:51.618Z,100300.48
2022-12-08T22:26:23.809Z,100297.89
2022-12-08T22:28:55.974Z,100300.47
2022-12-08T22:31:28.490Z,100289.34
2022-12-08T22:34:00.986Z,100284.22
2022-12-08T22:36:33.264Z,100281.63
2022-12-08T22:39:05.935Z,100292.78
2022-12-08T22:41:38.237Z,100296.23
2022-12-08T22:44:10.694Z,100300.52
2022-12-08T22:46:42.938Z,100304.81
2022-12-08T22:49:14.996Z,100303.97
2022-12-08T22:51:47.325Z,100309.11
2022-12-08T22:54:19.615Z,100309.98
2022-12-08T22:56:51.949Z,100309.12
2022-12-08T22:59:23.975Z,100315.13
2022-12-08T23:01:56.104Z,100315.97
2022-12-08T23:04:28.354Z,100312.57
2022-12-08T23:07:00.582Z,100309.98
2022-12-08T23:09:32.695Z,100315.14
2022-12-08T23:12:04.887Z,100305.73
2022-12-08T23:14:37.308Z,100293.70
2022-12-08T23:17:09.393Z,100293.72
2022-12-08T23:19:41.586Z,100299.75
2022-12-08T23:22:13.958Z,100285.16
2022-12-08T23:24:46.024Z,100302.31
2022-12-08T23:27:18.260Z,100305.77
2022-12-08T23:29:50.423Z,100311.77
2022-12-08T23:32:22.471Z,100310.07
2022-12-08T23:34:54.707Z,100309.21
2022-12-08T23:37:27.456Z,100298.05
2022-12-08T23:39:59.910Z,100311.80
2022-12-08T23:42:33.184Z,100312.66
2022-12-08T23:45:07.739Z,100313.56
2022-12-08T23:47:39.947Z,100310.10
2022-12-08T23:50:12.945Z,100308.40
2022-12-08T23:52:45.549Z,100317.81
2022-12-08T23:55:18.384Z,100313.53
2022-12-08T23:57:50.638Z,100315.23
